Time;durP1;ratioP1;P1;durP2;ratioP2;P2;SDS_P1;SDS_P2;PMS_P1;PMS_P2;Temp;Humidity;BMP_temperature;BMP_pressure;BME280_temperature;BME280_humidity;BME280_pressure;Samples;Min_cycle;Max_cycle;Signal;HPM_P1;HPM_P2
2023/05/24 00:01:31;;;;;;;5.22;4.00;;;;;;;14.30;83.65;96398.38;5092223;28;20522;-75
2023/05/24 00:03:59;;;;;;;5.43;4.20;;;;;;;14.29;83.98;96397.56;5091897;28;20052;-74
2023/05/24 00:06:26;;;;;;;5.88;4.15;;;;;;;14.36;83.48;96397.81;5091072;28;20062;-75
2023/05/24 00:08:54;;;;;;;5.50;4.07;;;;;;;14.33;83.14;96393.00;5091774;28;20052;-74
2023/05/24 00:11:22;;;;;;;5.05;4.20;;;;;;;14.11;82.26;96393.44;5091086;28;20044;-75
2023/05/24 00:13:49;;;;;;;10.85;4.30;;;;;;;13.85;84.00;96404.69;5091849;28;20078;-74
2023/05/24 00:16:15;;;;;;;5.82;4.53;;;;;;;13.70;85.21;96408.03;5090835;28;20532;-75
2023/05/24 00:18:45;;;;;;;5.68;4.47;;;;;;;13.90;84.54;96395.47;5091416;28;20044;-74
2023/05/24 00:21:12;;;;;;;5.07;3.95;;;;;;;13.76;84.21;96407.50;5090884;28;20040;-76
2023/05/24 00:23:39;;;;;;;6.15;4.15;;;;;;;13.48;85.99;96406.47;5103583;28;20039;-74
2023/05/24 00:26:06;;;;;;;6.13;4.75;;;;;;;13.21;87.51;96403.16;5111146;28;20040;-75
2023/05/24 00:28:33;;;;;;;6.75;4.57;;;;;;;13.09;88.39;96405.78;5111785;28;20065;-76
2023/05/24 00:31:00;;;;;;;5.97;4.70;;;;;;;13.09;88.75;96402.25;5111884;28;20047;-74
2023/05/24 00:33:27;;;;;;;5.88;4.78;;;;;;;13.07;89.64;96397.13;5110898;28;20050;-74
2023/05/24 00:35:55;;;;;;;5.43;4.15;;;;;;;13.07;89.39;96397.13;5111395;27;20051;-75
2023/05/24 00:38:22;;;;;;;6.40;4.40;;;;;;;13.09;89.42;96399.50;5101538;27;20051;-74
2023/05/24 00:40:48;;;;;;;5.50;4.35;;;;;;;13.01;90.07;96401.97;5091151;28;20050;-75
2023/05/24 00:43:16;;;;;;;5.40;4.15;;;;;;;13.23;88.87;96392.69;5090776;28;20089;-74
2023/05/24 00:45:43;;;;;;;5.95;4.47;;;;;;;13.38;88.46;96393.22;5090800;28;20047;-74
2023/05/24 00:48:10;;;;;;;5.50;4.03;;;;;;;13.37;87.54;96388.88;5106783;28;20038;-75
2023/05/24 00:50:38;;;;;;;7.50;4.47;;;;;;;13.16;88.51;96392.38;5111180;28;20039;-74
2023/05/24 00:53:07;;;;;;;9.63;4.72;;;;;;;13.17;88.86;96390.44;5110846;27;20050;-75
2023/05/24 00:55:35;;;;;;;5.80;4.25;;;;;;;13.31;88.43;96389.09;5111058;28;20050;-75
2023/05/24 00:58:02;;;;;;;7.07;4.32;;;;;;;13.43;88.08;96388.34;5110783;27;20046;-75
2023/05/24 01:00:30;;;;;;;6.30;4.57;;;;;;;13.58;87.29;96390.44;5110987;28;20032;-74
2023/05/24 01:02:56;;;;;;;6.10;4.53;;;;;;;13.65;86.58;96389.91;5111140;28;20054;-75
2023/05/24 01:05:23;;;;;;;4.55;3.58;;;;;;;13.80;86.31;96381.06;5110009;28;20047;-74
2023/05/24 01:07:59;;;;;;;5.80;4.32;;;;;;;13.81;85.65;96379.91;5110983;28;20494;-74
2023/05/24 01:10:34;;;;;;;5.70;4.55;;;;;;;13.74;85.18;96387.09;5100571;28;20047;-74
2023/05/24 01:13:07;;;;;;;6.57;4.70;;;;;;;13.81;85.15;96382.66;5090658;28;20044;-75
2023/05/24 01:15:43;;;;;;;7.53;4.43;;;;;;;13.81;85.31;96381.84;5090158;28;20036;-75
2023/05/24 01:18:16;;;;;;;5.18;3.72;;;;;;;13.79;85.03;96379.47;5098679;28;20097;-74
2023/05/24 01:20:43;;;;;;;6.45;4.50;;;;;;;13.62;85.95;96385.09;5090430;28;20495;-74
2023/05/24 01:23:33;;;;;;;6.38;4.70;;;;;;;13.48;87.24;96379.13;5090027;28;20044;-75
2023/05/24 01:26:18;;;;;;;7.35;4.43;;;;;;;13.46;87.05;96384.13;5090042;28;20523;-74
2023/05/24 01:28:48;;;;;;;5.90;4.50;;;;;;;13.42;87.47;96369.53;5090325;28;20143;-74
2023/05/24 01:31:15;;;;;;;7.60;4.40;;;;;;;13.50;86.52;96376.84;5089169;28;20511;-75
2023/05/24 01:33:42;;;;;;;6.45;4.30;;;;;;;13.49;86.04;96375.25;5090354;28;20040;-74
2023/05/24 01:36:09;;;;;;;6.95;4.43;;;;;;;13.42;88.17;96375.00;5097872;28;20039;-75
2023/05/24 01:38:36;;;;;;;6.38;4.53;;;;;;;13.47;87.26;96377.53;5112608;27;20056;-74
2023/05/24 01:41:18;;;;;;;5.90;4.57;;;;;;;13.43;87.16;96385.59;5106493;28;20036;-74
2023/05/24 01:43:52;;;;;;;6.75;4.88;;;;;;;13.54;86.28;96383.25;5084835;28;20036;-74
2023/05/24 01:46:25;;;;;;;6.40;4.60;;;;;;;13.47;87.17;96383.00;5092441;28;20716;-74
2023/05/24 01:48:59;;;;;;;5.53;4.05;;;;;;;13.51;86.99;96378.44;5113481;28;20048;-75
2023/05/24 01:51:30;;;;;;;6.32;4.35;;;;;;;13.61;86.16;96378.03;5114181;28;20040;-74
2023/05/24 01:53:58;;;;;;;5.85;4.57;;;;;;;13.45;86.37;96388.78;5116031;28;20040;-77
2023/05/24 01:56:27;;;;;;;8.82;4.60;;;;;;;13.48;86.47;96379.13;5098031;28;20572;-74
2023/05/24 01:58:56;;;;;;;7.72;4.70;;;;;;;13.54;86.34;96380.50;5094707;28;20044;-74
2023/05/24 02:01:23;;;;;;;6.70;4.38;;;;;;;13.43;87.21;96382.06;5093419;28;20646;-75
2023/05/24 02:03:50;;;;;;;6.68;4.47;;;;;;;13.23;88.40;96384.47;5094252;28;20040;-74
2023/05/24 02:06:17;;;;;;;8.45;4.75;;;;;;;13.12;89.48;96377.78;5102781;28;20487;-74
2023/05/24 02:08:43;;;;;;;7.45;4.95;;;;;;;13.09;89.81;96383.91;5086108;28;20698;-75
2023/05/24 02:11:10;;;;;;;6.82;4.70;;;;;;;12.99;90.48;96378.84;5094110;28;20070;-73
2023/05/24 02:13:36;;;;;;;7.88;5.05;;;;;;;13.08;90.16;96393.25;5109044;28;20528;-74
2023/05/24 02:16:04;;;;;;;6.65;5.18;;;;;;;13.24;89.08;96380.59;5103888;28;20590;-75
2023/05/24 02:18:33;;;;;;;7.30;5.15;;;;;;;13.39;88.65;96383.88;5098063;28;20044;-74
2023/05/24 02:21:00;;;;;;;8.00;5.22;;;;;;;13.30;87.54;96384.72;5089793;28;20046;-74
2023/05/24 02:23:26;;;;;;;6.22;4.90;;;;;;;13.39;87.41;96389.34;5088929;28;20055;-75
2023/05/24 02:25:53;;;;;;;7.93;5.25;;;;;;;13.48;86.88;96392.81;5093816;28;20048;-75
2023/05/24 02:28:19;;;;;;;8.23;5.20;;;;;;;13.51;86.27;96384.69;5092711;28;20475;-74
2023/05/24 02:30:46;;;;;;;8.80;5.40;;;;;;;13.54;86.50;96385.97;5089614;28;20043;-75
2023/05/24 02:33:14;;;;;;;7.90;5.40;;;;;;;13.38;86.49;96380.34;5088943;28;20119;-74
2023/05/24 02:35:41;;;;;;;7.60;5.70;;;;;;;13.45;86.48;96382.53;5092181;28;20044;-74
2023/05/24 02:38:08;;;;;;;8.10;5.72;;;;;;;13.47;85.90;96377.53;5109426;28;20084;-75
2023/05/24 02:40:35;;;;;;;7.60;4.65;;;;;;;13.61;85.90;96372.53;5109540;28;20051;-74
2023/05/24 02:43:01;;;;;;;13.68;6.15;;;;;;;13.65;85.55;96384.41;5111003;28;20487;-74
2023/05/24 02:45:28;;;;;;;5.50;4.50;;;;;;;13.73;85.24;96380.00;5112167;27;20063;-75
2023/05/24 02:47:54;;;;;;;18.17;7.45;;;;;;;13.56;85.12;96380.97;5098140;28;20051;-74
2023/05/24 02:50:22;;;;;;;7.45;5.55;;;;;;;13.34;86.12;96373.94;5104710;28;20036;-74
2023/05/24 02:52:48;;;;;;;8.95;5.80;;;;;;;13.44;86.08;96380.91;5093366;28;20067;-74
2023/05/24 02:55:15;;;;;;;8.38;5.22;;;;;;;13.41;85.62;96379.66;5092597;28;20072;-74
2023/05/24 02:57:41;;;;;;;7.32;4.47;;;;;;;13.49;85.60;96383.47;5092765;28;20048;-74
2023/05/24 03:00:10;;;;;;;8.93;5.82;;;;;;;13.26;86.61;96372.88;5092745;28;20040;-74
2023/05/24 03:02:39;;;;;;;7.75;5.32;;;;;;;13.47;86.09;96372.84;5092916;28;20475;-75
2023/05/24 03:05:07;;;;;;;9.77;5.22;;;;;;;13.56;85.50;96372.75;5092294;28;20044;-75
2023/05/24 03:07:35;;;;;;;12.55;5.68;;;;;;;13.50;85.11;96374.09;5103137;28;20040;-74
2023/05/24 03:10:01;;;;;;;9.02;5.88;;;;;;;13.55;85.15;96374.69;5112904;27;20134;-75
2023/05/24 03:12:28;;;;;;;7.90;5.75;;;;;;;13.23;84.73;96368.06;5113262;27;20043;-75
2023/05/24 03:14:54;;;;;;;8.57;6.07;;;;;;;13.31;85.15;96369.94;5112756;28;20041;-75
2023/05/24 03:17:21;;;;;;;8.35;6.05;;;;;;;13.29;84.25;96372.19;5112320;28;20036;-74
2023/05/24 03:19:47;;;;;;;6.90;5.55;;;;;;;13.40;84.90;96371.78;5084594;28;20431;-74
2023/05/24 03:22:14;;;;;;;7.30;5.00;;;;;;;13.41;84.96;96384.31;5092322;28;20040;-74
2023/05/24 03:24:41;;;;;;;9.25;5.43;;;;;;;13.43;84.69;96379.34;5092296;28;20399;-74
2023/05/24 03:27:08;;;;;;;9.23;6.10;;;;;;;13.43;84.64;96376.59;5092251;28;20048;-75
2023/05/24 03:29:34;;;;;;;8.15;5.40;;;;;;;13.50;84.44;96379.56;5092443;28;20052;-74
2023/05/24 03:32:01;;;;;;;10.65;7.22;;;;;;;12.87;87.17;96376.03;5106466;28;20043;-75
2023/05/24 03:34:29;;;;;;;12.20;6.75;;;;;;;12.83;86.88;96370.41;5091907;28;20044;-74
2023/05/24 03:36:55;;;;;;;9.98;6.60;;;;;;;12.82;87.18;96384.41;5092457;28;20094;-74
2023/05/24 03:39:21;;;;;;;9.45;6.32;;;;;;;12.69;87.32;96386.28;5091830;28;20055;-74
2023/05/24 03:41:49;;;;;;;10.48;6.68;;;;;;;12.64;86.60;96390.00;5070546;28;20044;-74
2023/05/24 03:44:16;;;;;;;8.35;6.20;;;;;;;12.68;86.54;96390.13;5091667;28;20393;-74
2023/05/24 03:46:42;;;;;;;8.82;6.18;;;;;;;12.91;86.03;96399.63;5080240;28;20060;-74
2023/05/24 03:49:09;;;;;;;8.60;6.05;;;;;;;12.69;85.00;96392.53;5071601;28;20055;-74
2023/05/24 03:51:35;;;;;;;8.23;5.70;;;;;;;12.51;84.76;96394.56;5072156;28;20045;-75
2023/05/24 03:54:02;;;;;;;8.95;6.05;;;;;;;12.69;84.41;96400.75;5071087;28;20094;-74
2023/05/24 03:56:28;;;;;;;7.63;5.90;;;;;;;12.64;84.48;96402.88;5071661;28;20044;-75
2023/05/24 03:58:59;;;;;;;8.57;5.40;;;;;;;12.51;85.14;96402.75;5071949;28;20049;-74
2023/05/24 04:01:25;;;;;;;8.85;6.10;;;;;;;12.20;85.58;96408.50;5070831;28;20044;-74
2023/05/24 04:03:55;;;;;;;9.68;6.30;;;;;;;12.42;85.29;96409.38;5071728;28;20044;-74
2023/05/24 04:06:27;;;;;;;7.32;5.28;;;;;;;12.47;85.01;96406.47;5071088;28;20074;-74
2023/05/24 04:08:54;;;;;;;9.02;5.68;;;;;;;12.34;85.54;96418.41;5071708;28;20127;-74
2023/05/24 04:11:21;;;;;;;14.35;6.53;;;;;;;12.30;85.55;96412.81;5071141;28;20048;-74
2023/05/24 04:13:47;;;;;;;8.70;6.55;;;;;;;12.04;86.30;96409.38;5071585;28;20040;-74
2023/05/24 04:16:15;;;;;;;10.80;5.55;;;;;;;12.28;86.38;96413.13;5070599;28;20040;-74
2023/05/24 04:18:42;;;;;;;11.10;6.10;;;;;;;12.21;86.47;96421.00;5073459;28;20047;-74
2023/05/24 04:21:08;;;;;;;11.43;5.72;;;;;;;12.26;86.99;96420.84;5091102;28;20043;-75
2023/05/24 04:23:35;;;;;;;7.53;5.30;;;;;;;12.36;86.11;96422.41;5091519;28;20071;-74
2023/05/24 04:26:01;;;;;;;7.75;4.93;;;;;;;12.52;85.68;96428.13;5091282;28;20051;-75
2023/05/24 04:28:28;;;;;;;8.05;5.68;;;;;;;12.30;85.81;96420.19;5091392;28;20040;-75
2023/05/24 04:30:56;;;;;;;8.85;6.05;;;;;;;12.30;86.07;96417.47;5091555;28;20106;-74
2023/05/24 04:33:24;;;;;;;7.88;5.60;;;;;;;12.40;85.63;96417.09;5090290;28;20415;-75
2023/05/24 04:35:51;;;;;;;11.15;6.53;;;;;;;12.37;85.73;96413.13;5070971;28;20044;-74
2023/05/24 04:38:18;;;;;;;9.68;6.28;;;;;;;12.48;85.45;96413.53;5085907;28;20403;-74
2023/05/24 04:40:45;;;;;;;13.07;6.25;;;;;;;12.59;85.17;96409.31;5087812;28;20131;-74
2023/05/24 04:43:12;;;;;;;7.28;5.25;;;;;;;12.64;85.64;96411.84;5070686;28;20068;-75
2023/05/24 04:45:38;;;;;;;9.93;6.20;;;;;;;12.59;85.46;96408.50;5087710;28;20054;-74
2023/05/24 04:48:05;;;;;;;9.93;5.90;;;;;;;12.42;85.93;96415.63;5070391;28;20052;-74
2023/05/24 04:50:34;;;;;;;10.93;6.13;;;;;;;12.26;86.92;96415.38;5072003;28;20056;-75
2023/05/24 04:53:00;;;;;;;16.83;6.30;;;;;;;12.21;86.96;96406.56;5081799;28;20040;-75
2023/05/24 04:55:28;;;;;;;11.85;5.95;;;;;;;12.36;86.27;96416.94;5081946;28;20067;-77
2023/05/24 04:57:55;;;;;;;8.30;5.40;;;;;;;12.53;85.98;96419.63;5072638;28;20055;-76
2023/05/24 05:00:21;;;;;;;11.98;6.22;;;;;;;12.63;85.43;96415.69;5082220;28;20044;-76
2023/05/24 05:02:48;;;;;;;10.90;6.43;;;;;;;12.41;86.66;96422.22;5073672;28;20059;-75
2023/05/24 05:05:15;;;;;;;11.05;6.93;;;;;;;12.29;86.22;96433.06;5087450;28;20032;-75
2023/05/24 05:07:42;;;;;;;9.23;6.35;;;;;;;12.22;87.06;96428.09;5084191;28;20426;-76
2023/05/24 05:10:09;;;;;;;9.60;6.43;;;;;;;12.17;87.65;96419.28;5077290;28;20036;-75
2023/05/24 05:12:35;;;;;;;11.38;6.45;;;;;;;12.51;87.40;96432.00;5076272;28;20054;-74
2023/05/24 05:15:02;;;;;;;9.70;6.13;;;;;;;12.69;86.14;96424.53;5077619;28;20118;-74
2023/05/24 05:17:28;;;;;;;9.25;5.60;;;;;;;12.76;85.36;96420.13;5076813;28;20045;-75
2023/05/24 05:19:55;;;;;;;8.52;5.88;;;;;;;12.84;85.39;96425.88;5082828;28;20055;-75
2023/05/24 05:22:21;;;;;;;9.98;5.70;;;;;;;12.93;85.03;96424.69;5081974;28;20050;-75
2023/05/24 05:24:49;;;;;;;11.48;5.93;;;;;;;12.87;84.15;96430.69;5081554;28;20063;-75
2023/05/24 05:27:16;;;;;;;12.13;6.55;;;;;;;12.92;84.56;96425.81;5081016;28;20051;-74
2023/05/24 05:29:42;;;;;;;8.05;5.13;;;;;;;12.99;82.88;96426.09;5071828;28;20055;-74
2023/05/24 05:32:09;;;;;;;9.38;6.28;;;;;;;12.98;82.85;96432.69;5075536;28;20411;-74
2023/05/24 05:34:35;;;;;;;8.32;5.43;;;;;;;13.12;83.30;96435.19;5070152;28;20045;-75
2023/05/24 05:37:02;;;;;;;8.55;5.63;;;;;;;13.14;82.44;96427.44;5074336;28;20040;-76
2023/05/24 05:39:30;;;;;;;9.60;5.43;;;;;;;13.17;82.64;96424.06;5078120;28;20669;-75
2023/05/24 05:41:58;;;;;;;9.52;5.10;;;;;;;13.33;83.50;96421.56;5075896;28;20128;-75
2023/05/24 05:44:24;;;;;;;10.07;5.68;;;;;;;13.42;83.65;96413.28;5073689;28;20044;-74
2023/05/24 05:46:51;;;;;;;7.10;5.00;;;;;;;13.54;82.67;96418.81;5069685;28;20047;-74
2023/05/24 05:49:18;;;;;;;9.25;5.72;;;;;;;13.54;81.98;96416.88;5073987;28;20044;-76
2023/05/24 05:51:44;;;;;;;12.20;5.90;;;;;;;13.05;82.28;96415.78;5071771;28;20045;-75
2023/05/24 05:54:15;;;;;;;7.97;5.63;;;;;;;13.23;82.34;96414.56;5087025;28;20044;-75
2023/05/24 05:56:44;;;;;;;8.23;5.35;;;;;;;13.18;81.53;96414.72;5074764;28;20045;-76
2023/05/24 05:59:12;;;;;;;9.52;5.53;;;;;;;13.35;81.45;96415.75;5072556;28;20051;-75
2023/05/24 06:01:39;;;;;;;9.88;6.05;;;;;;;13.33;82.12;96410.63;5075105;28;20044;-75
2023/05/24 06:04:05;;;;;;;10.35;6.20;;;;;;;13.14;83.02;96408.31;5081990;28;20045;-75
2023/05/24 06:06:32;;;;;;;10.13;6.32;;;;;;;13.15;82.96;96415.38;5084431;28;20077;-74
2023/05/24 06:08:59;;;;;;;10.05;5.68;;;;;;;13.14;83.71;96419.25;5077130;28;20139;-74
2023/05/24 06:11:26;;;;;;;9.25;5.80;;;;;;;13.39;82.16;96414.75;5077131;28;20401;-75
2023/05/24 06:13:52;;;;;;;9.48;6.22;;;;;;;13.50;81.88;96415.94;5070026;28;20500;-74
2023/05/24 06:16:20;;;;;;;9.35;6.32;;;;;;;13.45;80.09;96418.06;5075525;28;20044;-74
2023/05/24 06:18:47;;;;;;;7.68;5.35;;;;;;;13.55;79.28;96409.47;5069312;28;20451;-74
2023/05/24 06:21:14;;;;;;;7.80;5.53;;;;;;;13.58;79.60;96406.06;5070097;28;20044;-76
2023/05/24 06:23:41;;;;;;;9.38;6.20;;;;;;;13.56;79.09;96400.13;5069529;28;20098;-74
2023/05/24 06:26:09;;;;;;;8.00;5.85;;;;;;;13.57;79.14;96410.75;5081400;28;20047;-76
2023/05/24 06:28:35;;;;;;;10.05;5.75;;;;;;;13.53;79.71;96406.28;5081227;28;20051;-74
2023/05/24 06:31:02;;;;;;;8.43;5.38;;;;;;;13.61;80.08;96405.38;5069630;28;20044;-74
2023/05/24 06:33:31;;;;;;;11.27;5.78;;;;;;;13.74;80.79;96415.25;5079990;28;20412;-74
2023/05/24 06:35:58;;;;;;;12.05;6.22;;;;;;;13.46;81.06;96409.53;5078907;28;20044;-74
2023/05/24 06:38:24;;;;;;;7.85;5.05;;;;;;;13.70;80.76;96419.00;5082535;28;20051;-74
2023/05/24 06:40:51;;;;;;;6.55;4.82;;;;;;;13.79;79.34;96411.50;5070252;28;20059;-74
2023/05/24 06:43:19;;;;;;;6.70;5.28;;;;;;;13.89;79.93;96405.59;5074694;28;20526;-74
2023/05/24 06:45:46;;;;;;;9.57;5.78;;;;;;;13.94;80.21;96412.78;5078117;28;20135;-75
2023/05/24 06:48:12;;;;;;;8.25;5.47;;;;;;;14.03;79.01;96416.25;5074438;28;20493;-73
2023/05/24 06:50:41;;;;;;;7.22;5.80;;;;;;;14.10;78.77;96417.28;5076473;28;20559;-73
2023/05/24 06:53:07;;;;;;;8.43;6.10;;;;;;;14.07;76.83;96420.69;5074924;28;20098;-74
2023/05/24 06:55:34;;;;;;;8.50;5.45;;;;;;;13.69;80.05;96426.41;5074609;28;20097;-73
2023/05/24 06:58:01;;;;;;;11.57;5.20;;;;;;;13.68;78.92;96429.47;5070071;28;20075;-73
2023/05/24 07:00:27;;;;;;;9.68;5.63;;;;;;;13.63;78.31;96429.69;5068658;28;20048;-74
2023/05/24 07:02:54;;;;;;;9.02;5.68;;;;;;;13.46;79.30;96430.63;5084599;28;20051;-73
2023/05/24 07:05:21;;;;;;;11.20;5.88;;;;;;;13.61;80.80;96427.28;5086802;28;20062;-73
2023/05/24 07:07:48;;;;;;;10.77;5.78;;;;;;;13.56;80.13;96430.22;5074457;28;20421;-75
2023/05/24 07:10:15;;;;;;;7.25;5.40;;;;;;;13.77;80.35;96425.50;5068428;28;20045;-75
2023/05/24 07:12:41;;;;;;;9.63;5.57;;;;;;;13.92;78.09;96432.28;5068459;28;20048;-74
2023/05/24 07:15:09;;;;;;;6.60;4.88;;;;;;;13.95;78.20;96428.88;5067754;28;20041;-74
2023/05/24 07:17:35;;;;;;;10.80;5.30;;;;;;;14.01;76.33;96429.47;5068555;28;20118;-74
2023/05/24 07:20:05;;;;;;;7.32;4.90;;;;;;;13.90;77.47;96433.78;5068405;28;20140;-76
2023/05/24 07:22:32;;;;;;;5.57;4.40;;;;;;;14.17;77.25;96422.22;5069155;28;20047;-75
2023/05/24 07:25:00;;;;;;;6.80;4.63;;;;;;;14.30;74.84;96429.31;5068662;28;20599;-74
2023/05/24 07:27:26;;;;;;;5.65;4.53;;;;;;;14.35;75.20;96433.75;5063098;28;20040;-74
2023/05/24 07:29:53;;;;;;;5.95;3.95;;;;;;;14.50;73.10;96429.59;5077363;28;20040;-74
2023/05/24 07:32:19;;;;;;;6.63;4.40;;;;;;;14.68;73.73;96427.44;5080323;28;20040;-76
2023/05/24 07:34:46;;;;;;;10.70;5.15;;;;;;;14.51;75.60;96428.44;5078924;28;20079;-75
2023/05/24 07:37:12;;;;;;;8.82;4.50;;;;;;;14.66;75.59;96426.97;5083271;28;20400;-75
2023/05/24 07:39:39;;;;;;;7.30;4.38;;;;;;;14.87;74.34;96428.44;5081070;28;20040;-77
2023/05/24 07:42:07;;;;;;;9.07;5.38;;;;;;;14.80;74.55;96425.50;5072858;28;20064;-75
2023/05/24 07:44:34;;;;;;;7.57;4.40;;;;;;;14.79;72.73;96429.38;5081567;28;20056;-73
2023/05/24 07:47:01;;;;;;;7.57;5.00;;;;;;;14.92;71.57;96429.34;5081844;28;20045;-74
2023/05/24 07:49:27;;;;;;;7.85;5.07;;;;;;;14.67;73.02;96428.56;5074068;28;20043;-74
2023/05/24 07:51:56;;;;;;;7.65;5.13;;;;;;;14.67;73.95;96436.78;5086824;28;20054;-74
2023/05/24 07:54:23;;;;;;;11.52;6.40;;;;;;;14.49;74.16;96433.47;5070729;28;20044;-73
2023/05/24 07:56:49;;;;;;;8.75;5.30;;;;;;;14.44;74.89;96431.72;5071430;28;20049;-74
2023/05/24 07:59:17;;;;;;;8.93;5.43;;;;;;;14.24;75.94;96433.41;5073504;28;20051;-76
2023/05/24 08:01:44;;;;;;;7.63;5.45;;;;;;;14.32;74.65;96432.50;5072755;28;20053;-75
2023/05/24 08:04:10;;;;;;;6.78;5.15;;;;;;;14.42;76.64;96427.75;5071219;28;20056;-74
2023/05/24 08:06:37;;;;;;;8.45;5.35;;;;;;;14.54;74.93;96433.25;5072006;28;20040;-76
2023/05/24 08:09:06;;;;;;;7.57;5.00;;;;;;;14.74;74.03;96432.34;5064448;28;20060;-75
2023/05/24 08:11:32;;;;;;;7.65;5.32;;;;;;;14.88;74.06;96430.06;5080347;28;20043;-75
2023/05/24 08:13:59;;;;;;;8.52;5.30;;;;;;;15.08;72.63;96433.00;5086000;28;20061;-76
2023/05/24 08:16:27;;;;;;;13.57;6.50;;;;;;;15.00;71.42;96432.00;5084010;28;20484;-76
2023/05/24 08:18:53;;;;;;;12.02;6.70;;;;;;;14.88;70.19;96437.50;5088089;28;20048;-75
2023/05/24 08:21:21;;;;;;;10.75;6.00;;;;;;;14.87;70.79;96439.41;5072045;28;20040;-75
2023/05/24 08:23:47;;;;;;;9.48;5.05;;;;;;;14.87;69.47;96433.94;5074300;28;20041;-77
2023/05/24 08:26:17;;;;;;;7.82;5.10;;;;;;;14.87;66.97;96439.41;5074900;28;20040;-76
2023/05/24 08:28:44;;;;;;;7.57;5.00;;;;;;;14.59;69.25;96438.50;5090910;28;20044;-76
2023/05/24 08:31:10;;;;;;;8.60;4.28;;;;;;;14.44;68.87;96436.41;5092608;28;20044;-75
2023/05/24 08:33:38;;;;;;;8.07;4.18;;;;;;;14.55;69.08;96443.84;5080926;28;20047;-75
2023/05/24 08:36:05;;;;;;;8.73;4.75;;;;;;;14.53;70.13;96450.84;5080111;28;20045;-74
2023/05/24 08:38:32;;;;;;;7.82;4.93;;;;;;;14.30;70.50;96440.28;5074385;28;20049;-74
2023/05/24 08:40:59;;;;;;;12.63;5.85;;;;;;;14.18;68.78;96450.41;5075446;28;20045;-76
2023/05/24 08:43:26;;;;;;;7.70;5.18;;;;;;;14.34;70.73;96440.38;5079676;28;20051;-74
2023/05/24 08:45:55;;;;;;;8.77;6.03;;;;;;;14.33;71.63;96452.47;5091549;28;20047;-75
2023/05/24 08:48:23;;;;;;;7.88;5.70;;;;;;;14.30;72.63;96445.75;5090014;28;20055;-75
2023/05/24 08:50:52;;;;;;;10.98;7.10;;;;;;;14.28;73.17;96450.75;5091765;28;20675;-76
2023/05/24 08:53:18;;;;;;;11.88;7.35;;;;;;;14.25;72.42;96459.66;5074615;28;20484;-75
2023/05/24 08:55:46;;;;;;;10.43;7.18;;;;;;;14.32;72.92;96446.22;5069982;28;20051;-76
2023/05/24 08:58:13;;;;;;;10.27;7.13;;;;;;;14.18;72.78;96455.88;5081539;28;20410;-75
2023/05/24 09:00:39;;;;;;;14.05;8.00;;;;;;;14.27;72.71;96443.69;5081017;28;20052;-75
2023/05/24 09:03:06;;;;;;;12.90;8.10;;;;;;;14.25;72.92;96445.16;5076621;28;20052;-75
2023/05/24 09:05:33;;;;;;;9.48;7.30;;;;;;;14.09;71.42;96447.72;5075763;28;20047;-75
2023/05/24 09:08:02;;;;;;;13.27;7.63;;;;;;;14.28;72.24;96445.28;5069593;28;20044;-75
2023/05/24 09:10:32;;;;;;;12.30;9.30;;;;;;;14.16;73.50;96448.00;5074851;28;20051;-77
2023/05/24 09:13:02;;;;;;;19.02;9.13;;;;;;;14.29;74.47;96440.59;5087580;28;20043;-75
2023/05/24 09:15:28;;;;;;;11.05;7.32;;;;;;;14.38;70.24;96438.56;5066428;28;20037;-75
2023/05/24 09:17:55;;;;;;;10.00;7.18;;;;;;;14.43;68.64;96446.56;5056131;28;20044;-75
2023/05/24 09:20:21;;;;;;;9.32;6.90;;;;;;;14.49;69.61;96439.75;5056292;28;20048;-75
2023/05/24 09:22:51;;;;;;;11.55;8.00;;;;;;;14.39;69.16;96439.38;5064715;28;20048;-76
2023/05/24 09:25:20;;;;;;;11.23;7.45;;;;;;;14.45;69.92;96446.22;5055642;28;20049;-75
2023/05/24 09:27:50;;;;;;;10.20;6.53;;;;;;;14.07;69.18;96455.50;5065131;28;20068;-75
2023/05/24 09:30:17;;;;;;;11.38;6.70;;;;;;;14.21;70.31;96445.03;5059733;28;20048;-75
2023/05/24 09:32:55;;;;;;;12.27;6.40;;;;;;;14.34;69.65;96449.41;5067961;28;20063;-76
2023/05/24 09:35:21;;;;;;;9.45;6.05;;;;;;;14.19;69.88;96451.97;5064091;28;20469;-76
2023/05/24 09:37:48;;;;;;;11.07;6.50;;;;;;;14.20;71.98;96465.38;5058941;28;20523;-75
2023/05/24 09:40:19;;;;;;;16.15;6.07;;;;;;;14.43;71.09;96457.53;5062839;28;20072;-75
2023/05/24 09:42:46;;;;;;;9.95;6.25;;;;;;;14.39;67.94;96450.31;5062241;28;20052;-75
2023/05/24 09:45:12;;;;;;;11.13;5.40;;;;;;;14.52;69.50;96452.78;5061961;28;20474;-76
2023/05/24 09:47:40;;;;;;;11.38;6.22;;;;;;;14.62;69.37;96462.50;5054336;28;20049;-75
2023/05/24 09:50:13;;;;;;;11.68;6.22;;;;;;;14.54;70.41;96463.38;5057512;28;20043;-76
2023/05/24 09:52:40;;;;;;;10.95;5.60;;;;;;;14.49;67.26;96471.84;5064998;28;20055;-77
2023/05/24 09:55:14;;;;;;;14.15;6.60;;;;;;;14.56;66.28;96474.81;5068065;28;20132;-75
2023/05/24 09:57:43;;;;;;;12.43;6.88;;;;;;;14.67;66.88;96467.75;5069758;28;20669;-75
2023/05/24 10:00:16;;;;;;;11.18;5.90;;;;;;;14.49;67.82;96460.88;5057020;28;20043;-75
2023/05/24 10:02:42;;;;;;;11.45;5.40;;;;;;;14.40;66.69;96468.34;5074305;28;20052;-76
2023/05/24 10:05:10;;;;;;;15.02;6.03;;;;;;;14.45;68.54;96470.88;5055771;28;20037;-77
2023/05/24 10:07:37;;;;;;;10.27;5.22;;;;;;;14.48;67.51;96465.56;5058818;28;20137;-76
2023/05/24 10:10:06;;;;;;;12.55;5.70;;;;;;;14.59;67.39;96463.16;5057060;28;20047;-76
2023/05/24 10:12:34;;;;;;;9.20;5.07;;;;;;;14.95;69.10;96456.91;5056995;28;20552;-76
2023/05/24 10:15:03;;;;;;;10.60;5.50;;;;;;;15.19;67.87;96466.25;5057965;28;20052;-76
2023/05/24 10:17:30;;;;;;;8.35;4.65;;;;;;;15.37;67.02;96462.91;5057070;28;20041;-76
2023/05/24 10:19:56;;;;;;;11.55;5.60;;;;;;;15.46;64.32;96470.22;5071102;28;20040;-76
2023/05/24 10:22:24;;;;;;;9.20;5.35;;;;;;;15.16;63.10;96465.00;5091770;28;20040;-75
2023/05/24 10:24:57;;;;;;;9.70;4.60;;;;;;;15.29;64.35;96461.06;5094206;28;20044;-76
2023/05/24 10:27:27;;;;;;;10.88;5.45;;;;;;;15.15;63.17;96468.88;5091434;28;20055;-77
2023/05/24 10:30:01;;;;;;;9.05;4.90;;;;;;;15.00;62.28;96469.59;5081308;28;20051;-75
2023/05/24 10:32:31;;;;;;;8.43;5.70;;;;;;;15.05;62.70;96461.13;5070295;28;20036;-76
2023/05/24 10:34:59;;;;;;;13.57;5.35;;;;;;;14.62;63.49;96465.25;5070580;28;20523;-76
2023/05/24 10:37:26;;;;;;;11.10;5.05;;;;;;;14.76;62.91;96465.69;5079433;28;20050;-76
2023/05/24 10:39:53;;;;;;;7.40;4.10;;;;;;;14.94;64.52;96470.97;5073409;28;20116;-76
2023/05/24 10:42:20;;;;;;;10.90;5.93;;;;;;;14.69;64.50;96468.19;5070749;28;20051;-76
2023/05/24 10:44:46;;;;;;;9.68;5.60;;;;;;;14.38;64.64;96470.66;5070752;28;20071;-75
2023/05/24 10:47:15;;;;;;;13.35;6.63;;;;;;;14.08;65.30;96479.00;5069477;28;20052;-76
2023/05/24 10:49:51;;;;;;;10.75;5.88;;;;;;;14.25;64.83;96484.31;5072077;28;20144;-75
2023/05/24 10:52:18;;;;;;;11.60;5.05;;;;;;;14.32;64.66;96472.81;5079258;28;20128;-76
2023/05/24 10:55:10;;;;;;;10.05;5.68;;;;;;;14.58;65.84;96475.28;5070045;28;20048;-76
2023/05/24 10:57:38;;;;;;;11.73;5.43;;;;;;;14.45;65.40;96473.63;5055488;28;20052;-75
2023/05/24 11:00:28;;;;;;;13.07;4.85;;;;;;;14.30;64.21;96484.09;5069449;28;20040;-76
2023/05/24 11:03:01;;;;;;;10.65;4.80;;;;;;;14.19;64.75;96482.09;5070664;28;20052;-75
2023/05/24 11:05:34;;;;;;;10.10;5.18;;;;;;;14.32;65.48;96478.28;5085299;28;20526;-75
2023/05/24 11:08:01;;;;;;;11.07;5.05;;;;;;;14.65;65.77;96472.75;5094251;28;20069;-75
2023/05/24 11:10:30;;;;;;;21.80;6.00;;;;;;;14.50;63.52;96476.97;5092939;28;20119;-76
2023/05/24 11:12:57;;;;;;;14.00;5.65;;;;;;;14.49;64.61;96482.78;5087602;28;20040;-75
2023/05/24 11:15:24;;;;;;;11.45;5.30;;;;;;;14.70;64.21;96483.50;5088105;28;20044;-74
2023/05/24 11:18:16;;;;;;;10.75;5.47;;;;;;;14.60;63.41;96478.47;5073501;28;20051;-75
2023/05/24 11:20:45;;;;;;;12.68;5.20;;;;;;;14.69;62.11;96487.38;5080946;28;20047;-75
2023/05/24 11:23:14;;;;;;;12.00;5.30;;;;;;;14.36;64.10;96490.97;5081054;28;20045;-75
2023/05/24 11:25:40;;;;;;;14.65;6.13;;;;;;;14.27;64.39;96482.03;5085041;28;20135;-75
2023/05/24 11:28:08;;;;;;;14.18;5.22;;;;;;;14.52;65.37;96476.66;5073708;28;20119;-76
2023/05/24 11:30:39;;;;;;;13.93;5.50;;;;;;;14.60;66.41;96479.25;5075459;28;20131;-76
2023/05/24 11:33:06;;;;;;;14.55;6.20;;;;;;;14.42;65.49;96477.84;5077872;28;20048;-76
2023/05/24 11:35:32;;;;;;;12.30;5.40;;;;;;;14.62;66.31;96476.19;5074293;28;20052;-75